sensor_id;sensor_type;location;lat;lon;timestamp;P1;durP1;ratioP1;P2;durP2;ratioP2
76608;SDS011;65928;53.936;27.540;2023-03-14T00:00:09;11.00;;;8.48;;
76608;SDS011;65928;53.936;27.540;2023-03-14T00:02:37;9.30;;;6.80;;
76608;SDS011;65928;53.936;27.540;2023-03-14T00:05:02;12.15;;;7.68;;
76608;SDS011;65928;53.936;27.540;2023-03-14T00:07:32;15.10;;;7.38;;
76608;SDS011;65928;53.936;27.540;2023-03-14T00:10:00;13.90;;;7.68;;
76608;SDS011;65928;53.936;27.540;2023-03-14T00:12:29;13.00;;;8.25;;
76608;SDS011;65928;53.936;27.540;2023-03-14T00:14:54;10.38;;;7.53;;
76608;SDS011;65928;53.936;27.540;2023-03-14T00:17:20;10.88;;;6.85;;
76608;SDS011;65928;53.936;27.540;2023-03-14T00:19:45;12.18;;;7.75;;
76608;SDS011;65928;53.936;27.540;2023-03-14T00:22:11;9.90;;;5.90;;
76608;SDS011;65928;53.936;27.540;2023-03-14T00:24:36;11.43;;;7.35;;
76608;SDS011;65928;53.936;27.540;2023-03-14T00:27:02;9.05;;;6.57;;
76608;SDS011;65928;53.936;27.540;2023-03-14T00:29:27;9.57;;;6.35;;
76608;SDS011;65928;53.936;27.540;2023-03-14T00:31:53;9.65;;;6.53;;
76608;SDS011;65928;53.936;27.540;2023-03-14T00:34:18;11.82;;;7.43;;
76608;SDS011;65928;53.936;27.540;2023-03-14T00:36:44;10.52;;;6.63;;
76608;SDS011;65928;53.936;27.540;2023-03-14T00:39:10;10.93;;;6.65;;
76608;SDS011;65928;53.936;27.540;2023-03-14T00:41:35;8.88;;;5.53;;
76608;SDS011;65928;53.936;27.540;2023-03-14T00:44:01;10.00;;;6.72;;
76608;SDS011;65928;53.936;27.540;2023-03-14T00:46:27;9.65;;;6.05;;
76608;SDS011;65928;53.936;27.540;2023-03-14T00:48:52;10.90;;;6.93;;
76608;SDS011;65928;53.936;27.540;2023-03-14T00:51:18;10.27;;;6.35;;
76608;SDS011;65928;53.936;27.540;2023-03-14T00:53:43;9.07;;;6.47;;
76608;SDS011;65928;53.936;27.540;2023-03-14T00:56:11;9.63;;;6.50;;
76608;SDS011;65928;53.936;27.540;2023-03-14T00:58:37;9.38;;;6.43;;
76608;SDS011;65928;53.936;27.540;2023-03-14T01:01:10;10.65;;;6.05;;
76608;SDS011;65928;53.936;27.540;2023-03-14T01:03:38;9.52;;;6.43;;
76608;SDS011;65928;53.936;27.540;2023-03-14T01:06:08;8.85;;;6.30;;
76608;SDS011;65928;53.936;27.540;2023-03-14T01:08:38;10.60;;;6.22;;
76608;SDS011;65928;53.936;27.540;2023-03-14T01:11:05;10.05;;;6.05;;
76608;SDS011;65928;53.936;27.540;2023-03-14T01:13:34;10.32;;;6.55;;
76608;SDS011;65928;53.936;27.540;2023-03-14T01:16:01;9.63;;;6.50;;
76608;SDS011;65928;53.936;27.540;2023-03-14T01:18:27;8.95;;;6.15;;
76608;SDS011;65928;53.936;27.540;2023-03-14T01:20:53;12.70;;;6.22;;
76608;SDS011;65928;53.936;27.540;2023-03-14T01:23:18;9.27;;;6.93;;
76608;SDS011;65928;53.936;27.540;2023-03-14T01:25:44;9.57;;;6.05;;
76608;SDS011;65928;53.936;27.540;2023-03-14T01:28:09;9.38;;;5.90;;
76608;SDS011;65928;53.936;27.540;2023-03-14T01:30:34;11.45;;;6.72;;
76608;SDS011;65928;53.936;27.540;2023-03-14T01:33:00;9.63;;;6.53;;
76608;SDS011;65928;53.936;27.540;2023-03-14T01:35:25;9.80;;;6.43;;
76608;SDS011;65928;53.936;27.540;2023-03-14T01:37:51;11.18;;;7.25;;
76608;SDS011;65928;53.936;27.540;2023-03-14T01:40:16;9.90;;;6.22;;
76608;SDS011;65928;53.936;27.540;2023-03-14T01:42:56;10.45;;;6.90;;
76608;SDS011;65928;53.936;27.540;2023-03-14T01:48:31;8.48;;;6.25;;
76608;SDS011;65928;53.936;27.540;2023-03-14T01:51:04;10.20;;;6.18;;
76608;SDS011;65928;53.936;27.540;2023-03-14T01:53:34;8.48;;;6.22;;
76608;SDS011;65928;53.936;27.540;2023-03-14T01:56:02;8.32;;;6.55;;
76608;SDS011;65928;53.936;27.540;2023-03-14T01:58:28;12.98;;;7.15;;
76608;SDS011;65928;53.936;27.540;2023-03-14T02:00:57;9.70;;;6.78;;
76608;SDS011;65928;53.936;27.540;2023-03-14T02:03:23;9.48;;;6.18;;
76608;SDS011;65928;53.936;27.540;2023-03-14T02:05:52;9.18;;;6.50;;
76608;SDS011;65928;53.936;27.540;2023-03-14T02:08:21;9.25;;;6.28;;
76608;SDS011;65928;53.936;27.540;2023-03-14T02:10:49;9.10;;;6.53;;
76608;SDS011;65928;53.936;27.540;2023-03-14T02:13:18;9.63;;;6.03;;
76608;SDS011;65928;53.936;27.540;2023-03-14T02:15:45;10.50;;;7.28;;
76608;SDS011;65928;53.936;27.540;2023-03-14T02:18:11;11.13;;;6.15;;
76608;SDS011;65928;53.936;27.540;2023-03-14T02:21:20;8.80;;;5.75;;
76608;SDS011;65928;53.936;27.540;2023-03-14T02:23:33;8.30;;;6.07;;
76608;SDS011;65928;53.936;27.540;2023-03-14T02:26:09;8.30;;;5.88;;
76608;SDS011;65928;53.936;27.540;2023-03-14T02:28:39;8.57;;;5.15;;
76608;SDS011;65928;53.936;27.540;2023-03-14T02:31:05;7.50;;;5.85;;
76608;SDS011;65928;53.936;27.540;2023-03-14T02:33:33;9.43;;;5.95;;
76608;SDS011;65928;53.936;27.540;2023-03-14T02:36:01;9.65;;;5.85;;
76608;SDS011;65928;53.936;27.540;2023-03-14T02:41:33;9.93;;;6.45;;
76608;SDS011;65928;53.936;27.540;2023-03-14T02:43:59;9.73;;;6.65;;
76608;SDS011;65928;53.936;27.540;2023-03-14T02:46:24;7.88;;;6.00;;
76608;SDS011;65928;53.936;27.540;2023-03-14T02:48:54;9.85;;;6.15;;
76608;SDS011;65928;53.936;27.540;2023-03-14T02:51:26;8.07;;;6.30;;
76608;SDS011;65928;53.936;27.540;2023-03-14T02:53:53;8.50;;;6.47;;
76608;SDS011;65928;53.936;27.540;2023-03-14T02:56:18;7.60;;;5.85;;
76608;SDS011;65928;53.936;27.540;2023-03-14T02:58:44;7.53;;;5.97;;
76608;SDS011;65928;53.936;27.540;2023-03-14T03:01:09;9.32;;;5.78;;
76608;SDS011;65928;53.936;27.540;2023-03-14T03:03:35;8.85;;;6.60;;
76608;SDS011;65928;53.936;27.540;2023-03-14T03:06:00;8.18;;;6.05;;
76608;SDS011;65928;53.936;27.540;2023-03-14T03:08:26;10.18;;;7.13;;
76608;SDS011;65928;53.936;27.540;2023-03-14T03:10:53;11.48;;;6.35;;
76608;SDS011;65928;53.936;27.540;2023-03-14T03:13:19;12.07;;;7.35;;
76608;SDS011;65928;53.936;27.540;2023-03-14T03:15:45;8.63;;;6.53;;
76608;SDS011;65928;53.936;27.540;2023-03-14T03:18:10;10.27;;;6.57;;
76608;SDS011;65928;53.936;27.540;2023-03-14T03:20:36;10.07;;;6.72;;
76608;SDS011;65928;53.936;27.540;2023-03-14T03:23:02;9.38;;;7.00;;
76608;SDS011;65928;53.936;27.540;2023-03-14T03:25:27;8.13;;;5.82;;
76608;SDS011;65928;53.936;27.540;2023-03-14T03:27:54;8.40;;;5.97;;
76608;SDS011;65928;53.936;27.540;2023-03-14T03:30:19;8.52;;;5.82;;
76608;SDS011;65928;53.936;27.540;2023-03-14T03:32:45;11.02;;;6.50;;
76608;SDS011;65928;53.936;27.540;2023-03-14T03:35:11;9.18;;;6.38;;
76608;SDS011;65928;53.936;27.540;2023-03-14T03:37:37;9.38;;;6.43;;
76608;SDS011;65928;53.936;27.540;2023-03-14T03:40:02;10.70;;;5.78;;
76608;SDS011;65928;53.936;27.540;2023-03-14T03:42:32;8.57;;;5.85;;
76608;SDS011;65928;53.936;27.540;2023-03-14T03:44:59;8.75;;;5.85;;
76608;SDS011;65928;53.936;27.540;2023-03-14T03:47:25;8.30;;;5.45;;
76608;SDS011;65928;53.936;27.540;2023-03-14T03:49:51;8.93;;;6.30;;
76608;SDS011;65928;53.936;27.540;2023-03-14T03:52:16;8.73;;;6.25;;
76608;SDS011;65928;53.936;27.540;2023-03-14T03:54:42;11.02;;;7.18;;
76608;SDS011;65928;53.936;27.540;2023-03-14T03:57:07;9.75;;;6.70;;
76608;SDS011;65928;53.936;27.540;2023-03-14T03:59:33;9.93;;;7.75;;
76608;SDS011;65928;53.936;27.540;2023-03-14T04:01:59;11.32;;;6.07;;
76608;SDS011;65928;53.936;27.540;2023-03-14T04:04:24;9.13;;;6.80;;
76608;SDS011;65928;53.936;27.540;2023-03-14T04:06:50;11.52;;;6.30;;
76608;SDS011;65928;53.936;27.540;2023-03-14T04:09:16;9.88;;;6.50;;
76608;SDS011;65928;53.936;27.540;2023-03-14T04:11:41;9.82;;;6.38;;
76608;SDS011;65928;53.936;27.540;2023-03-14T04:14:07;8.60;;;5.57;;
76608;SDS011;65928;53.936;27.540;2023-03-14T04:16:32;10.70;;;6.25;;
76608;SDS011;65928;53.936;27.540;2023-03-14T04:19:00;8.88;;;5.53;;
76608;SDS011;65928;53.936;27.540;2023-03-14T04:21:26;10.50;;;6.50;;
76608;SDS011;65928;53.936;27.540;2023-03-14T04:23:51;8.63;;;5.93;;
76608;SDS011;65928;53.936;27.540;2023-03-14T04:26:16;9.45;;;6.47;;
76608;SDS011;65928;53.936;27.540;2023-03-14T04:28:42;9.30;;;6.35;;
76608;SDS011;65928;53.936;27.540;2023-03-14T04:31:09;8.75;;;6.43;;
76608;SDS011;65928;53.936;27.540;2023-03-14T04:33:37;8.75;;;6.00;;
76608;SDS011;65928;53.936;27.540;2023-03-14T04:36:04;10.18;;;6.43;;
76608;SDS011;65928;53.936;27.540;2023-03-14T04:38:31;9.85;;;6.85;;
76608;SDS011;65928;53.936;27.540;2023-03-14T04:40:56;8.90;;;5.95;;
76608;SDS011;65928;53.936;27.540;2023-03-14T04:43:22;9.48;;;6.40;;
76608;SDS011;65928;53.936;27.540;2023-03-14T04:45:48;7.95;;;6.18;;
76608;SDS011;65928;53.936;27.540;2023-03-14T04:48:13;11.13;;;6.53;;
76608;SDS011;65928;53.936;27.540;2023-03-14T04:50:39;8.88;;;6.35;;
76608;SDS011;65928;53.936;27.540;2023-03-14T04:53:05;9.15;;;5.85;;
76608;SDS011;65928;53.936;27.540;2023-03-14T04:55:32;8.98;;;5.72;;
76608;SDS011;65928;53.936;27.540;2023-03-14T04:57:59;9.30;;;6.20;;
76608;SDS011;65928;53.936;27.540;2023-03-14T05:00:25;7.65;;;6.57;;
76608;SDS011;65928;53.936;27.540;2023-03-14T05:02:51;7.63;;;6.25;;
76608;SDS011;65928;53.936;27.540;2023-03-14T05:05:16;10.10;;;5.85;;
76608;SDS011;65928;53.936;27.540;2023-03-14T05:07:42;10.15;;;6.10;;
76608;SDS011;65928;53.936;27.540;2023-03-14T05:10:08;8.70;;;5.63;;
76608;SDS011;65928;53.936;27.540;2023-03-14T05:12:34;8.27;;;5.90;;
76608;SDS011;65928;53.936;27.540;2023-03-14T05:15:00;11.75;;;6.97;;
76608;SDS011;65928;53.936;27.540;2023-03-14T05:17:25;9.52;;;6.50;;
76608;SDS011;65928;53.936;27.540;2023-03-14T05:19:51;9.23;;;6.25;;
76608;SDS011;65928;53.936;27.540;2023-03-14T05:22:16;9.35;;;6.40;;
76608;SDS011;65928;53.936;27.540;2023-03-14T05:24:42;9.27;;;5.80;;
76608;SDS011;65928;53.936;27.540;2023-03-14T05:27:07;9.63;;;6.10;;
76608;SDS011;65928;53.936;27.540;2023-03-14T05:29:33;8.82;;;6.47;;
76608;SDS011;65928;53.936;27.540;2023-03-14T05:31:58;11.05;;;6.20;;
76608;SDS011;65928;53.936;27.540;2023-03-14T05:34:24;9.18;;;6.25;;
76608;SDS011;65928;53.936;27.540;2023-03-14T05:36:49;8.93;;;5.80;;
76608;SDS011;65928;53.936;27.540;2023-03-14T05:39:15;8.00;;;5.40;;
76608;SDS011;65928;53.936;27.540;2023-03-14T05:41:40;9.93;;;6.95;;
76608;SDS011;65928;53.936;27.540;2023-03-14T05:44:05;8.13;;;6.43;;
76608;SDS011;65928;53.936;27.540;2023-03-14T05:46:31;8.52;;;5.93;;
76608;SDS011;65928;53.936;27.540;2023-03-14T05:48:57;8.27;;;6.07;;
76608;SDS011;65928;53.936;27.540;2023-03-14T05:51:23;7.95;;;5.22;;
76608;SDS011;65928;53.936;27.540;2023-03-14T05:53:49;7.82;;;5.75;;
76608;SDS011;65928;53.936;27.540;2023-03-14T05:56:14;12.43;;;6.43;;
76608;SDS011;65928;53.936;27.540;2023-03-14T05:58:40;7.90;;;5.22;;
76608;SDS011;65928;53.936;27.540;2023-03-14T06:01:06;9.52;;;5.47;;
76608;SDS011;65928;53.936;27.540;2023-03-14T06:03:32;6.65;;;5.45;;
76608;SDS011;65928;53.936;27.540;2023-03-14T06:05:58;8.23;;;5.28;;
76608;SDS011;65928;53.936;27.540;2023-03-14T06:08:24;7.60;;;5.10;;
76608;SDS011;65928;53.936;27.540;2023-03-14T06:10:50;9.75;;;5.65;;
76608;SDS011;65928;53.936;27.540;2023-03-14T06:13:16;7.03;;;4.70;;
76608;SDS011;65928;53.936;27.540;2023-03-14T06:15:42;7.15;;;4.68;;
76608;SDS011;65928;53.936;27.540;2023-03-14T06:18:08;10.85;;;5.20;;
76608;SDS011;65928;53.936;27.540;2023-03-14T06:20:37;10.23;;;5.65;;
76608;SDS011;65928;53.936;27.540;2023-03-14T06:23:04;8.20;;;5.10;;
76608;SDS011;65928;53.936;27.540;2023-03-14T06:25:30;8.18;;;5.63;;
76608;SDS011;65928;53.936;27.540;2023-03-14T06:27:56;8.25;;;5.18;;
76608;SDS011;65928;53.936;27.540;2023-03-14T06:30:22;9.10;;;5.55;;
76608;SDS011;65928;53.936;27.540;2023-03-14T06:32:48;9.52;;;5.40;;
76608;SDS011;65928;53.936;27.540;2023-03-14T06:35:13;8.98;;;5.45;;
76608;SDS011;65928;53.936;27.540;2023-03-14T06:37:38;8.27;;;5.70;;
76608;SDS011;65928;53.936;27.540;2023-03-14T06:40:04;9.55;;;5.53;;
76608;SDS011;65928;53.936;27.540;2023-03-14T06:42:32;8.02;;;5.00;;
76608;SDS011;65928;53.936;27.540;2023-03-14T06:44:58;8.45;;;6.13;;
76608;SDS011;65928;53.936;27.540;2023-03-14T06:47:23;7.35;;;5.00;;
76608;SDS011;65928;53.936;27.540;2023-03-14T06:49:49;7.25;;;4.97;;
76608;SDS011;65928;53.936;27.540;2023-03-14T06:52:14;8.85;;;5.75;;
76608;SDS011;65928;53.936;27.540;2023-03-14T06:54:40;8.10;;;4.85;;
76608;SDS011;65928;53.936;27.540;2023-03-14T06:57:05;10.07;;;5.43;;
76608;SDS011;65928;53.936;27.540;2023-03-14T06:59:31;7.13;;;4.75;;
76608;SDS011;65928;53.936;27.540;2023-03-14T07:01:56;7.50;;;5.22;;
76608;SDS011;65928;53.936;27.540;2023-03-14T07:04:22;8.23;;;4.90;;
76608;SDS011;65928;53.936;27.540;2023-03-14T07:06:47;8.27;;;4.43;;
76608;SDS011;65928;53.936;27.540;2023-03-14T07:09:13;6.75;;;5.13;;
76608;SDS011;65928;53.936;27.540;2023-03-14T07:11:39;7.05;;;4.95;;
76608;SDS011;65928;53.936;27.540;2023-03-14T07:14:05;7.40;;;4.65;;
76608;SDS011;65928;53.936;27.540;2023-03-14T07:16:31;8.85;;;5.60;;
76608;SDS011;65928;53.936;27.540;2023-03-14T07:18:58;8.00;;;5.82;;
76608;SDS011;65928;53.936;27.540;2023-03-14T07:21:24;9.07;;;5.80;;
76608;SDS011;65928;53.936;27.540;2023-03-14T07:23:50;7.78;;;4.63;;
76608;SDS011;65928;53.936;27.540;2023-03-14T07:26:15;7.45;;;4.88;;
76608;SDS011;65928;53.936;27.540;2023-03-14T07:28:41;8.82;;;4.90;;
76608;SDS011;65928;53.936;27.540;2023-03-14T07:31:07;8.02;;;4.63;;
76608;SDS011;65928;53.936;27.540;2023-03-14T07:33:33;7.47;;;4.60;;
76608;SDS011;65928;53.936;27.540;2023-03-14T07:35:59;7.13;;;4.95;;
76608;SDS011;65928;53.936;27.540;2023-03-14T07:38:25;5.93;;;3.97;;
76608;SDS011;65928;53.936;27.540;2023-03-14T07:40:50;6.82;;;5.40;;
76608;SDS011;65928;53.936;27.540;2023-03-14T07:43:23;6.82;;;4.78;;
76608;SDS011;65928;53.936;27.540;2023-03-14T07:45:49;8.68;;;5.68;;
76608;SDS011;65928;53.936;27.540;2023-03-14T07:48:17;8.23;;;5.03;;
76608;SDS011;65928;53.936;27.540;2023-03-14T07:50:43;10.07;;;6.18;;
76608;SDS011;65928;53.936;27.540;2023-03-14T07:53:08;7.82;;;5.65;;
76608;SDS011;65928;53.936;27.540;2023-03-14T07:55:34;6.85;;;5.07;;
76608;SDS011;65928;53.936;27.540;2023-03-14T07:57:59;8.38;;;5.65;;
76608;SDS011;65928;53.936;27.540;2023-03-14T08:00:25;8.07;;;5.65;;
76608;SDS011;65928;53.936;27.540;2023-03-14T08:02:50;7.97;;;5.25;;
76608;SDS011;65928;53.936;27.540;2023-03-14T08:05:16;8.23;;;5.18;;
76608;SDS011;65928;53.936;27.540;2023-03-14T08:07:42;8.80;;;6.07;;
76608;SDS011;65928;53.936;27.540;2023-03-14T08:10:07;10.15;;;6.13;;
76608;SDS011;65928;53.936;27.540;2023-03-14T08:12:34;8.15;;;5.93;;
76608;SDS011;65928;53.936;27.540;2023-03-14T08:14:59;7.70;;;5.80;;
76608;SDS011;65928;53.936;27.540;2023-03-14T08:17:25;7.20;;;5.95;;
76608;SDS011;65928;53.936;27.540;2023-03-14T08:19:51;10.48;;;5.57;;
76608;SDS011;65928;53.936;27.540;2023-03-14T08:22:16;6.20;;;5.38;;
76608;SDS011;65928;53.936;27.540;2023-03-14T08:24:42;7.57;;;5.25;;
76608;SDS011;65928;53.936;27.540;2023-03-14T08:27:07;5.82;;;4.50;;
76608;SDS011;65928;53.936;27.540;2023-03-14T08:29:33;7.22;;;4.75;;
76608;SDS011;65928;53.936;27.540;2023-03-14T08:31:58;7.20;;;5.22;;
76608;SDS011;65928;53.936;27.540;2023-03-14T08:34:23;7.63;;;5.00;;
76608;SDS011;65928;53.936;27.540;2023-03-14T08:36:49;5.65;;;4.72;;
76608;SDS011;65928;53.936;27.540;2023-03-14T08:39:15;6.90;;;5.22;;
76608;SDS011;65928;53.936;27.540;2023-03-14T08:41:40;11.52;;;4.55;;
76608;SDS011;65928;53.936;27.540;2023-03-14T08:44:08;6.53;;;4.72;;
76608;SDS011;65928;53.936;27.540;2023-03-14T08:46:34;6.88;;;4.25;;
76608;SDS011;65928;53.936;27.540;2023-03-14T08:49:00;7.35;;;4.72;;
76608;SDS011;65928;53.936;27.540;2023-03-14T08:51:25;6.70;;;4.53;;
76608;SDS011;65928;53.936;27.540;2023-03-14T08:53:51;7.97;;;4.35;;
76608;SDS011;65928;53.936;27.540;2023-03-14T08:56:16;7.75;;;4.63;;
76608;SDS011;65928;53.936;27.540;2023-03-14T08:58:42;5.90;;;4.32;;
76608;SDS011;65928;53.936;27.540;2023-03-14T09:01:08;6.13;;;4.18;;
76608;SDS011;65928;53.936;27.540;2023-03-14T09:03:35;6.97;;;4.85;;
76608;SDS011;65928;53.936;27.540;2023-03-14T09:06:07;9.77;;;4.20;;
76608;SDS011;65928;53.936;27.540;2023-03-14T09:08:34;5.90;;;3.72;;
76608;SDS011;65928;53.936;27.540;2023-03-14T09:11:00;6.90;;;4.28;;
76608;SDS011;65928;53.936;27.540;2023-03-14T09:13:26;6.00;;;3.85;;
76608;SDS011;65928;53.936;27.540;2023-03-14T09:15:52;6.53;;;4.72;;
76608;SDS011;65928;53.936;27.540;2023-03-14T09:18:21;6.93;;;4.30;;
76608;SDS011;65928;53.936;27.540;2023-03-14T09:20:47;5.38;;;3.78;;
76608;SDS011;65928;53.936;27.540;2023-03-14T09:23:14;5.43;;;3.70;;
76608;SDS011;65928;53.936;27.540;2023-03-14T09:25:39;5.85;;;4.60;;
76608;SDS011;65928;53.936;27.540;2023-03-14T09:28:05;6.63;;;3.53;;
76608;SDS011;65928;53.936;27.540;2023-03-14T09:30:30;5.72;;;3.95;;
76608;SDS011;65928;53.936;27.540;2023-03-14T09:32:56;6.95;;;4.00;;
76608;SDS011;65928;53.936;27.540;2023-03-14T09:35:22;5.40;;;4.30;;
76608;SDS011;65928;53.936;27.540;2023-03-14T09:37:48;5.43;;;3.63;;
76608;SDS011;65928;53.936;27.540;2023-03-14T09:40:17;8.07;;;4.22;;
76608;SDS011;65928;53.936;27.540;2023-03-14T09:42:45;5.60;;;3.70;;
76608;SDS011;65928;53.936;27.540;2023-03-14T09:47:46;5.72;;;4.00;;
76608;SDS011;65928;53.936;27.540;2023-03-14T09:50:15;5.57;;;3.97;;
76608;SDS011;65928;53.936;27.540;2023-03-14T09:52:43;7.35;;;4.32;;
76608;SDS011;65928;53.936;27.540;2023-03-14T09:55:19;6.75;;;4.57;;
76608;SDS011;65928;53.936;27.540;2023-03-14T09:57:47;7.80;;;4.22;;
76608;SDS011;65928;53.936;27.540;2023-03-14T10:02:52;5.70;;;4.40;;
76608;SDS011;65928;53.936;27.540;2023-03-14T10:05:21;6.50;;;4.50;;
76608;SDS011;65928;53.936;27.540;2023-03-14T10:07:48;5.90;;;4.07;;
76608;SDS011;65928;53.936;27.540;2023-03-14T10:12:44;7.05;;;4.53;;
76608;SDS011;65928;53.936;27.540;2023-03-14T10:15:23;7.63;;;4.80;;
76608;SDS011;65928;53.936;27.540;2023-03-14T10:17:57;7.38;;;4.72;;
76608;SDS011;65928;53.936;27.540;2023-03-14T10:20:29;6.90;;;4.90;;
76608;SDS011;65928;53.936;27.540;2023-03-14T10:23:19;5.15;;;4.03;;
76608;SDS011;65928;53.936;27.540;2023-03-14T10:26:00;7.32;;;4.93;;
76608;SDS011;65928;53.936;27.540;2023-03-14T10:28:31;9.43;;;4.13;;
76608;SDS011;65928;53.936;27.540;2023-03-14T10:30:59;5.50;;;4.20;;
76608;SDS011;65928;53.936;27.540;2023-03-14T10:33:26;8.60;;;4.43;;
76608;SDS011;65928;53.936;27.540;2023-03-14T10:35:57;5.95;;;4.35;;
76608;SDS011;65928;53.936;27.540;2023-03-14T10:38:29;6.13;;;4.03;;
76608;SDS011;65928;53.936;27.540;2023-03-14T10:40:56;6.03;;;4.80;;
76608;SDS011;65928;53.936;27.540;2023-03-14T10:43:25;7.10;;;4.70;;
76608;SDS011;65928;53.936;27.540;2023-03-14T10:45:56;7.82;;;5.15;;
76608;SDS011;65928;53.936;27.540;2023-03-14T10:48:31;7.53;;;4.45;;
76608;SDS011;65928;53.936;27.540;2023-03-14T10:53:33;5.97;;;4.88;;
76608;SDS011;65928;53.936;27.540;2023-03-14T10:56:04;8.75;;;5.07;;
76608;SDS011;65928;53.936;27.540;2023-03-14T10:58:30;6.30;;;5.03;;
76608;SDS011;65928;53.936;27.540;2023-03-14T11:04:38;5.72;;;4.15;;
76608;SDS011;65928;53.936;27.540;2023-03-14T11:07:36;6.32;;;4.70;;
76608;SDS011;65928;53.936;27.540;2023-03-14T11:15:25;6.72;;;4.03;;
76608;SDS011;65928;53.936;27.540;2023-03-14T11:20:36;5.78;;;3.63;;
76608;SDS011;65928;53.936;27.540;2023-03-14T11:28:37;4.95;;;3.42;;
76608;SDS011;65928;53.936;27.540;2023-03-14T11:37:25;6.78;;;3.83;;
76608;SDS011;65928;53.936;27.540;2023-03-14T11:39:41;5.30;;;3.80;;
76608;SDS011;65928;53.936;27.540;2023-03-14T11:42:12;7.30;;;4.45;;
76608;SDS011;65928;53.936;27.540;2023-03-14T11:44:43;6.18;;;3.85;;
76608;SDS011;65928;53.936;27.540;2023-03-14T11:52:19;8.25;;;4.20;;
76608;SDS011;65928;53.936;27.540;2023-03-14T11:57:22;6.93;;;4.32;;
76608;SDS011;65928;53.936;27.540;2023-03-14T12:02:21;6.25;;;3.70;;
76608;SDS011;65928;53.936;27.540;2023-03-14T12:07:32;6.07;;;3.63;;
76608;SDS011;65928;53.936;27.540;2023-03-14T12:10:07;5.32;;;3.50;;
76608;SDS011;65928;53.936;27.540;2023-03-14T12:12:32;5.13;;;3.53;;
76608;SDS011;65928;53.936;27.540;2023-03-14T12:14:59;5.82;;;2.95;;
76608;SDS011;65928;53.936;27.540;2023-03-14T12:17:36;6.90;;;3.05;;
76608;SDS011;65928;53.936;27.540;2023-03-14T12:25:23;4.70;;;2.72;;
76608;SDS011;65928;53.936;27.540;2023-03-14T12:35:52;5.57;;;3.25;;
76608;SDS011;65928;53.936;27.540;2023-03-14T12:41:12;6.32;;;2.80;;
76608;SDS011;65928;53.936;27.540;2023-03-14T12:43:38;6.25;;;3.35;;
76608;SDS011;65928;53.936;27.540;2023-03-14T13:02:49;5.10;;;2.72;;
76608;SDS011;65928;53.936;27.540;2023-03-14T13:05:18;4.75;;;3.20;;
76608;SDS011;65928;53.936;27.540;2023-03-14T13:10:18;6.63;;;3.25;;
76608;SDS011;65928;53.936;27.540;2023-03-14T13:12:50;5.60;;;3.40;;
76608;SDS011;65928;53.936;27.540;2023-03-14T13:18:09;5.82;;;3.88;;
76608;SDS011;65928;53.936;27.540;2023-03-14T13:20:44;7.82;;;4.53;;
76608;SDS011;65928;53.936;27.540;2023-03-14T13:23:20;5.82;;;4.13;;
76608;SDS011;65928;53.936;27.540;2023-03-14T13:25:47;7.85;;;4.85;;
76608;SDS011;65928;53.936;27.540;2023-03-14T13:28:13;6.75;;;5.18;;
76608;SDS011;65928;53.936;27.540;2023-03-14T13:30:41;9.35;;;5.10;;
76608;SDS011;65928;53.936;27.540;2023-03-14T13:33:16;9.05;;;4.30;;
76608;SDS011;65928;53.936;27.540;2023-03-14T13:35:48;7.43;;;4.28;;
76608;SDS011;65928;53.936;27.540;2023-03-14T13:38:21;6.70;;;4.10;;
76608;SDS011;65928;53.936;27.540;2023-03-14T13:40:55;6.20;;;3.95;;
76608;SDS011;65928;53.936;27.540;2023-03-14T13:48:28;4.90;;;2.70;;
76608;SDS011;65928;53.936;27.540;2023-03-14T13:50:58;4.53;;;3.10;;
76608;SDS011;65928;53.936;27.540;2023-03-14T13:53:29;6.85;;;3.13;;
76608;SDS011;65928;53.936;27.540;2023-03-14T13:55:55;5.18;;;2.90;;
76608;SDS011;65928;53.936;27.540;2023-03-14T13:58:26;4.85;;;2.75;;
76608;SDS011;65928;53.936;27.540;2023-03-14T14:00:58;4.30;;;3.08;;
76608;SDS011;65928;53.936;27.540;2023-03-14T14:03:38;4.43;;;2.67;;
76608;SDS011;65928;53.936;27.540;2023-03-14T14:06:28;3.80;;;2.38;;
76608;SDS011;65928;53.936;27.540;2023-03-14T14:08:53;4.95;;;2.90;;
76608;SDS011;65928;53.936;27.540;2023-03-14T14:11:22;6.07;;;2.95;;
76608;SDS011;65928;53.936;27.540;2023-03-14T14:13:55;4.45;;;2.45;;
76608;SDS011;65928;53.936;27.540;2023-03-14T14:16:22;5.35;;;2.80;;
76608;SDS011;65928;53.936;27.540;2023-03-14T14:18:51;4.63;;;2.72;;
76608;SDS011;65928;53.936;27.540;2023-03-14T14:21:18;5.82;;;2.80;;
76608;SDS011;65928;53.936;27.540;2023-03-14T14:23:44;6.10;;;3.20;;
76608;SDS011;65928;53.936;27.540;2023-03-14T14:26:13;6.85;;;2.95;;
76608;SDS011;65928;53.936;27.540;2023-03-14T14:28:41;4.57;;;2.50;;
76608;SDS011;65928;53.936;27.540;2023-03-14T14:31:22;4.70;;;2.65;;
76608;SDS011;65928;53.936;27.540;2023-03-14T14:33:59;4.90;;;2.90;;
76608;SDS011;65928;53.936;27.540;2023-03-14T14:41:40;4.47;;;2.60;;
76608;SDS011;65928;53.936;27.540;2023-03-14T14:44:07;4.72;;;2.88;;
76608;SDS011;65928;53.936;27.540;2023-03-14T14:46:33;6.63;;;2.85;;
76608;SDS011;65928;53.936;27.540;2023-03-14T14:49:05;4.75;;;2.05;;
76608;SDS011;65928;53.936;27.540;2023-03-14T14:51:42;5.13;;;2.65;;
76608;SDS011;65928;53.936;27.540;2023-03-14T14:54:13;6.43;;;2.85;;
76608;SDS011;65928;53.936;27.540;2023-03-14T14:56:51;5.28;;;2.70;;
76608;SDS011;65928;53.936;27.540;2023-03-14T14:59:40;4.90;;;2.38;;
76608;SDS011;65928;53.936;27.540;2023-03-14T15:02:16;5.65;;;2.67;;
76608;SDS011;65928;53.936;27.540;2023-03-14T15:05:02;4.55;;;3.00;;
76608;SDS011;65928;53.936;27.540;2023-03-14T15:07:29;6.03;;;2.88;;
76608;SDS011;65928;53.936;27.540;2023-03-14T15:09:55;5.63;;;2.97;;
76608;SDS011;65928;53.936;27.540;2023-03-14T15:12:20;4.47;;;2.65;;
76608;SDS011;65928;53.936;27.540;2023-03-14T15:14:46;4.95;;;2.80;;
76608;SDS011;65928;53.936;27.540;2023-03-14T15:17:12;6.85;;;2.60;;
76608;SDS011;65928;53.936;27.540;2023-03-14T15:19:38;4.57;;;3.40;;
76608;SDS011;65928;53.936;27.540;2023-03-14T15:22:04;6.45;;;2.80;;
76608;SDS011;65928;53.936;27.540;2023-03-14T15:24:36;5.22;;;2.75;;
76608;SDS011;65928;53.936;27.540;2023-03-14T15:27:02;5.55;;;3.35;;
76608;SDS011;65928;53.936;27.540;2023-03-14T15:29:28;5.95;;;2.97;;
76608;SDS011;65928;53.936;27.540;2023-03-14T15:31:53;7.15;;;2.97;;
76608;SDS011;65928;53.936;27.540;2023-03-14T15:34:19;5.88;;;3.22;;
76608;SDS011;65928;53.936;27.540;2023-03-14T15:36:44;4.68;;;3.00;;
76608;SDS011;65928;53.936;27.540;2023-03-14T15:39:10;5.95;;;3.42;;
76608;SDS011;65928;53.936;27.540;2023-03-14T15:41:36;5.03;;;3.10;;
76608;SDS011;65928;53.936;27.540;2023-03-14T15:44:02;4.93;;;2.85;;
76608;SDS011;65928;53.936;27.540;2023-03-14T15:46:28;4.85;;;2.78;;
76608;SDS011;65928;53.936;27.540;2023-03-14T15:48:53;5.10;;;3.10;;
76608;SDS011;65928;53.936;27.540;2023-03-14T15:51:19;5.30;;;3.15;;
76608;SDS011;65928;53.936;27.540;2023-03-14T15:53:44;5.72;;;3.05;;
76608;SDS011;65928;53.936;27.540;2023-03-14T15:56:11;5.28;;;2.97;;
76608;SDS011;65928;53.936;27.540;2023-03-14T15:58:39;4.55;;;2.85;;
76608;SDS011;65928;53.936;27.540;2023-03-14T16:01:06;4.40;;;2.90;;
76608;SDS011;65928;53.936;27.540;2023-03-14T16:03:36;5.88;;;2.97;;
76608;SDS011;65928;53.936;27.540;2023-03-14T16:06:01;5.30;;;3.22;;
76608;SDS011;65928;53.936;27.540;2023-03-14T16:08:27;5.80;;;3.28;;
76608;SDS011;65928;53.936;27.540;2023-03-14T16:10:54;5.20;;;3.10;;
76608;SDS011;65928;53.936;27.540;2023-03-14T16:13:21;6.07;;;3.70;;
76608;SDS011;65928;53.936;27.540;2023-03-14T16:15:57;7.70;;;3.67;;